createdAt,value
2022-10-16T00:04:04.732Z,14.20
2022-10-16T00:08:07.629Z,14.20
2022-10-16T00:12:10.494Z,14.20
2022-10-16T00:16:14.433Z,14.20
2022-10-16T00:20:18.716Z,14.10
2022-10-16T00:24:21.524Z,14.10
2022-10-16T00:28:24.529Z,14.20
2022-10-16T00:32:27.900Z,14.20
2022-10-16T00:36:33.189Z,14.20
2022-10-16T00:40:36.088Z,14.30
2022-10-16T00:44:46.925Z,14.30
2022-10-16T00:48:52.142Z,14.40
2022-10-16T00:52:56.976Z,14.40
2022-10-16T00:57:01.961Z,14.40
2022-10-16T01:01:04.948Z,14.40
2022-10-16T01:05:09.039Z,14.50
2022-10-16T01:09:16.583Z,14.50
2022-10-16T01:13:23.324Z,14.50
2022-10-16T01:17:30.563Z,14.50
2022-10-16T01:21:34.991Z,14.50
2022-10-16T01:26:01.866Z,14.40
2022-10-16T01:30:10.784Z,14.40
2022-10-16T01:34:15.719Z,14.50
2022-10-16T01:38:21.229Z,14.40
2022-10-16T01:42:25.909Z,14.40
2022-10-16T01:46:30.689Z,14.40
2022-10-16T01:50:34.755Z,14.40
2022-10-16T01:54:39.205Z,14.30
2022-10-16T01:58:43.781Z,14.30
2022-10-16T02:02:51.247Z,14.30
2022-10-16T02:06:54.714Z,14.20
2022-10-16T02:10:58.210Z,14.20
2022-10-16T02:15:01.115Z,14.20
2022-10-16T02:19:05.532Z,14.20
2022-10-16T02:23:11.586Z,14.20
2022-10-16T02:27:17.370Z,14.10
2022-10-16T02:31:23.736Z,14.10
2022-10-16T02:35:29.191Z,14.10
2022-10-16T02:39:32.350Z,14.00
2022-10-16T02:43:35.555Z,14.00
2022-10-16T02:47:38.407Z,14.00
2022-10-16T02:51:42.600Z,13.90
2022-10-16T02:55:45.447Z,13.90
2022-10-16T02:59:48.295Z,13.90
2022-10-16T03:03:51.187Z,13.90
2022-10-16T03:07:55.412Z,13.80
2022-10-16T03:11:58.264Z,13.80
2022-10-16T03:16:01.152Z,13.70
2022-10-16T03:20:04.145Z,13.70
2022-10-16T03:24:08.694Z,13.70
2022-10-16T03:28:11.584Z,13.70
2022-10-16T03:32:14.420Z,13.60
2022-10-16T03:36:17.265Z,13.60
2022-10-16T03:40:21.540Z,13.60
2022-10-16T03:44:24.399Z,13.60
2022-10-16T03:48:27.315Z,13.60
2022-10-16T03:52:30.166Z,13.60
2022-10-16T03:56:34.386Z,13.60
2022-10-16T04:00:37.247Z,13.60
2022-10-16T04:04:40.052Z,13.50
2022-10-16T04:08:44.620Z,13.50
2022-10-16T04:12:48.824Z,13.50
2022-10-16T04:16:51.693Z,13.50
2022-10-16T04:20:54.669Z,13.40
2022-10-16T04:24:57.496Z,13.40
2022-10-16T04:29:01.753Z,13.40
2022-10-16T04:33:04.691Z,13.40
2022-10-16T04:37:07.745Z,13.40
2022-10-16T04:41:10.602Z,13.40
2022-10-16T04:45:17.119Z,13.40
2022-10-16T04:49:20.386Z,13.40
2022-10-16T04:53:23.323Z,13.40
2022-10-16T04:57:26.522Z,13.40
2022-10-16T05:01:30.859Z,13.40
2022-10-16T05:05:33.719Z,13.50
2022-10-16T05:09:36.520Z,13.50
2022-10-16T05:13:39.483Z,13.50
2022-10-16T05:17:44.797Z,13.50
2022-10-16T05:21:47.788Z,13.50
2022-10-16T05:25:59.176Z,13.50
2022-10-16T05:30:02.171Z,13.50
2022-10-16T05:34:06.384Z,13.50
2022-10-16T05:38:09.218Z,13.50
2022-10-16T05:42:12.133Z,13.50
2022-10-16T05:46:15.057Z,13.50
2022-10-16T05:50:19.284Z,13.40
2022-10-16T05:54:22.138Z,13.40
2022-10-16T05:58:25.235Z,13.40
2022-10-16T06:02:28.122Z,13.40
2022-10-16T06:06:32.507Z,13.40
2022-10-16T06:10:35.342Z,13.40
2022-10-16T06:14:38.241Z,13.40
2022-10-16T06:18:41.130Z,13.50
2022-10-16T06:22:45.311Z,13.50
2022-10-16T06:26:48.189Z,13.50
2022-10-16T06:30:51.017Z,13.60
2022-10-16T06:34:53.839Z,13.70
2022-10-16T06:38:58.491Z,13.80
2022-10-16T06:43:01.337Z,13.80
2022-10-16T06:47:04.525Z,14.00
2022-10-16T06:51:08.842Z,14.20
2022-10-16T06:55:13.038Z,14.50
2022-10-16T11:27:53.045Z,24.70
2022-10-16T11:31:59.579Z,24.40
2022-10-16T11:36:05.603Z,23.80
2022-10-16T11:40:18.827Z,23.50
2022-10-16T11:44:28.943Z,24.10
2022-10-16T11:48:35.932Z,24.30
2022-10-16T11:52:42.175Z,24.50
2022-10-16T11:56:46.980Z,25.40
2022-10-16T12:00:55.130Z,25.60
2022-10-16T12:05:03.888Z,25.70
2022-10-16T12:09:07.633Z,26.10
2022-10-16T12:13:25.356Z,26.20
2022-10-16T12:17:36.626Z,26.50
2022-10-16T12:21:39.574Z,26.70
2022-10-16T12:25:47.516Z,26.80
2022-10-16T12:29:56.553Z,26.50
2022-10-16T12:34:02.262Z,26.10
2022-10-16T12:38:09.346Z,25.60
2022-10-16T12:42:22.656Z,25.10
2022-10-16T12:46:35.520Z,24.70
2022-10-16T12:50:41.650Z,24.30
2022-10-16T12:54:44.886Z,23.90
2022-10-16T12:59:02.697Z,23.50
2022-10-16T13:03:25.299Z,23.10
2022-10-16T13:07:38.390Z,22.70
2022-10-16T13:11:51.448Z,22.30
2022-10-16T13:16:04.639Z,22.10
2022-10-16T13:20:13.317Z,21.90
2022-10-16T13:24:21.724Z,21.80
2022-10-16T13:28:29.717Z,21.50
2022-10-16T13:32:32.867Z,21.40
2022-10-16T13:36:37.396Z,21.30
2022-10-16T13:40:49.976Z,21.20
2022-10-16T13:44:53.871Z,21.10
2022-10-16T13:48:59.676Z,21.10
2022-10-16T13:53:06.193Z,21.00
2022-10-16T13:57:26.253Z,20.90
2022-10-16T14:01:32.680Z,20.80
2022-10-16T14:05:36.482Z,20.80
2022-10-16T14:09:40.538Z,20.70
2022-10-16T14:13:47.422Z,20.70
2022-10-16T14:17:52.380Z,20.60
2022-10-16T14:21:55.229Z,20.60
2022-10-16T14:26:07.651Z,20.60
2022-10-16T14:30:17.046Z,20.70
2022-10-16T14:34:28.398Z,20.80
2022-10-16T14:38:31.530Z,20.90
2022-10-16T14:42:34.456Z,21.10
2022-10-16T14:46:39.532Z,21.20
2022-10-16T14:50:42.456Z,21.30
2022-10-16T14:54:45.321Z,21.60
2022-10-16T14:58:48.289Z,21.80
2022-10-16T15:02:52.974Z,22.10
2022-10-16T15:06:55.927Z,22.40
2022-10-16T15:10:58.817Z,22.70
2022-10-16T15:15:01.787Z,23.00
2022-10-16T15:19:06.077Z,23.10
2022-10-16T15:23:12.869Z,23.20
2022-10-16T15:27:15.807Z,23.30
2022-10-16T15:31:18.775Z,23.40
2022-10-16T15:35:23.286Z,23.30
2022-10-16T15:39:26.351Z,23.20
2022-10-16T15:43:29.846Z,23.10
2022-10-16T15:47:32.854Z,23.10
2022-10-16T15:51:40.053Z,23.10
2022-10-16T15:55:42.925Z,22.90
2022-10-16T15:59:45.870Z,22.60
2022-10-16T16:03:48.860Z,22.30
2022-10-16T16:07:53.281Z,22.00
2022-10-16T16:11:56.797Z,21.80
2022-10-16T16:15:59.761Z,21.40
2022-10-16T16:20:02.697Z,21.20
2022-10-16T16:24:09.201Z,20.90
2022-10-16T16:28:15.232Z,20.60
2022-10-16T16:32:18.198Z,20.40
2022-10-16T16:36:21.256Z,20.20
2022-10-16T16:40:25.525Z,20.00
2022-10-16T16:44:28.445Z,19.80
2022-10-16T16:48:31.488Z,19.60
2022-10-16T16:52:34.471Z,19.40
2022-10-16T16:56:38.716Z,19.30
2022-10-16T17:00:56.437Z,19.10
2022-10-16T17:04:59.797Z,18.90
2022-10-16T17:09:04.568Z,18.80
2022-10-16T17:13:08.834Z,18.70
2022-10-16T17:17:11.700Z,18.50
2022-10-16T17:21:14.622Z,18.40
2022-10-16T17:25:17.710Z,18.30
2022-10-16T17:29:21.959Z,18.20
2022-10-16T17:33:24.847Z,18.10
2022-10-16T17:37:27.670Z,18.10
2022-10-16T17:41:30.665Z,17.90
2022-10-16T17:45:38.349Z,17.90
2022-10-16T17:49:41.260Z,17.80
2022-10-16T17:53:44.838Z,17.60
2022-10-16T17:57:48.160Z,17.60
2022-10-16T18:01:52.645Z,17.60
2022-10-16T18:05:56.452Z,17.50
2022-10-16T18:10:17.471Z,17.40
2022-10-16T18:14:22.284Z,17.30
2022-10-16T18:18:29.518Z,17.30
2022-10-16T18:22:35.954Z,17.20
2022-10-16T18:26:39.331Z,17.20
2022-10-16T18:30:42.410Z,17.10
2022-10-16T18:34:47.317Z,17.00
2022-10-16T18:38:50.445Z,16.90
2022-10-16T18:42:53.744Z,16.80
2022-10-16T18:46:59.301Z,16.80
2022-10-16T18:51:11.426Z,16.70
2022-10-16T18:55:14.403Z,16.60
2022-10-16T18:59:17.443Z,16.50
2022-10-16T19:03:20.430Z,16.50
2022-10-16T19:07:25.086Z,16.40
2022-10-16T19:11:28.685Z,16.40
2022-10-16T19:15:31.800Z,16.30
2022-10-16T19:19:35.059Z,16.30
2022-10-16T19:23:39.563Z,16.30
2022-10-16T19:27:42.536Z,16.30
2022-10-16T19:31:45.433Z,16.20
2022-10-16T19:35:48.271Z,16.20
2022-10-16T19:39:52.559Z,16.10
2022-10-16T19:43:55.766Z,16.10
2022-10-16T19:47:58.620Z,16.00
2022-10-16T19:52:02.054Z,15.90
2022-10-16T19:56:12.710Z,15.90
2022-10-16T20:00:17.618Z,15.90
2022-10-16T20:04:20.574Z,15.90
2022-10-16T20:08:23.752Z,15.80
2022-10-16T20:12:28.056Z,15.80
2022-10-16T20:16:31.449Z,15.80
2022-10-16T20:20:37.968Z,15.70
2022-10-16T20:24:40.908Z,15.70
2022-10-16T20:28:45.473Z,15.70
2022-10-16T20:32:48.376Z,15.70
2022-10-16T20:36:51.300Z,15.60
2022-10-16T20:40:54.119Z,15.60
2022-10-16T20:44:58.328Z,15.60
2022-10-16T20:49:10.623Z,15.60
2022-10-16T20:53:14.285Z,15.60
2022-10-16T20:57:17.315Z,15.60
2022-10-16T21:01:22.200Z,15.60
2022-10-16T21:05:28.691Z,15.50
2022-10-16T21:09:31.987Z,15.50
2022-10-16T21:13:34.856Z,15.50
2022-10-16T21:17:39.164Z,15.50
2022-10-16T21:21:42.069Z,15.50
2022-10-16T21:25:48.985Z,15.50
2022-10-16T21:29:53.413Z,15.50
2022-10-16T21:33:57.799Z,15.50
2022-10-16T21:38:01.749Z,15.50
2022-10-16T21:42:04.659Z,15.50
2022-10-16T21:46:07.640Z,15.50
2022-10-16T21:50:12.057Z,15.50
2022-10-16T21:54:15.799Z,15.50
2022-10-16T21:58:18.654Z,15.50
2022-10-16T22:02:21.497Z,15.50
2022-10-16T22:06:27.484Z,15.50
2022-10-16T22:10:30.531Z,15.50
2022-10-16T22:14:33.368Z,15.50
2022-10-16T22:18:36.632Z,15.50
2022-10-16T22:22:40.890Z,15.50
2022-10-16T22:26:44.071Z,15.50
2022-10-16T22:30:47.271Z,15.50
2022-10-16T22:34:50.090Z,15.50
2022-10-16T22:38:54.369Z,15.50
2022-10-16T22:42:57.347Z,15.50
2022-10-16T22:47:00.204Z,15.40
2022-10-16T22:51:03.112Z,15.40
2022-10-16T22:55:07.702Z,15.40
2022-10-16T22:59:10.551Z,15.40
2022-10-16T23:03:13.700Z,15.40
2022-10-16T23:07:16.632Z,15.40
2022-10-16T23:11:20.889Z,15.40
2022-10-16T23:15:23.707Z,15.30
2022-10-16T23:19:26.577Z,15.30
2022-10-16T23:23:29.426Z,15.30
2022-10-16T23:27:33.656Z,15.30
2022-10-16T23:31:36.510Z,15.20
2022-10-16T23:35:40.370Z,15.20
2022-10-16T23:39:43.219Z,15.20
2022-10-16T23:43:47.443Z,15.10
2022-10-16T23:47:50.294Z,15.10
2022-10-16T23:51:53.117Z,15.10
2022-10-16T23:55:55.995Z,15.00
